Time;durP1;ratioP1;P1;durP2;ratioP2;P2;SDS_P1;SDS_P2;PMS_P1;PMS_P2;Temp;Humidity;BMP_temperature;BMP_pressure;BME280_temperature;BME280_humidity;BME280_pressure;Samples;Min_cycle;Max_cycle;Signal;HPM_P1;HPM_P2
2022/12/21 07:01:40;;;;;;;;;;;;;;;;;;6065799;23;20261;-84
2022/12/21 07:04:06;;;;;;;;;;;;;;;;;;6069575;23;19917;-84
2022/12/21 07:06:31;;;;;;;;;;;;;;;;;;6069346;23;19924;-82
2022/12/21 10:55:01;;;;;;;;;;;;;;;;;;6052955;23;19929;-86
2022/12/21 10:57:29;;;;;;;;;;;;;;;;;;6041267;23;19918;-82
2022/12/21 10:59:54;;;;;;;;;;;;;;;;;;6041069;23;19945;-85
2022/12/21 11:02:42;;;;;;;;;;;;;;;;;;6020868;23;19915;-84
2022/12/21 11:05:26;;;;;;;;;;;;;;;;;;6010473;23;20234;-85
2022/12/21 11:07:52;;;;;;;;;;;;;;;;;;6012387;23;19938;-84
2022/12/21 11:10:35;;;;;;;;;;;;;;;;;;6012269;23;19977;-83
2022/12/21 11:13:04;;;;;;;;;;;;;;;;;;6012072;23;19924;-84
2022/12/21 11:15:29;;;;;;;;;;;;;;;;;;6012548;23;19957;-89
2022/12/21 11:17:54;;;;;;;;;;;;;;;;;;6013453;23;19911;-91
2022/12/21 11:20:20;;;;;;;;;;;;;;;;;;6012991;23;20014;-92
2022/12/21 11:22:46;;;;;;;;;;;;;;;;;;6011197;23;19914;-88
2022/12/21 11:25:14;;;;;;;;;;;;;;;;;;6014275;23;19915;-91
2022/12/21 11:27:43;;;;;;;;;;;;;;;;;;6013774;23;19941;-90
2022/12/21 11:30:09;;;;;;;;;;;;;;;;;;6013637;23;19914;-84
2022/12/21 11:32:35;;;;;;;;;;;;;;;;;;6012447;23;20275;-90
2022/12/21 11:35:02;;;;;;;;;;;;;;;;;;6011363;23;19914;-86
2022/12/21 11:37:43;;;;;;;;;;;;;;;;;;6012403;23;19918;-92
2022/12/21 11:40:11;;;;;;;;;;;;;;;;;;6012077;23;19989;-83
2022/12/21 11:42:49;;;;;;;;;;;;;;;;;;6012208;23;20350;-82
2022/12/21 11:45:17;;;;;;;;;;;;;;;;;;6012135;23;19915;-82
2022/12/21 11:47:51;;;;;;;;;;;;;;;;;;6012031;23;19915;-83
2022/12/21 11:50:24;;;;;;;;;;;;;;;;;;6011943;23;19914;-83
2022/12/21 11:53:07;;;;;;;;;;;;;;;;;;6012251;23;19948;-83
2022/12/21 11:55:41;;;;;;;;;;;;;;;;;;6007517;23;20330;-88
2022/12/21 11:58:12;;;;;;;;;;;;;;;;;;6012219;23;20295;-87
2022/12/21 12:00:45;;;;;;;;;;;;;;;;;;6011225;23;19914;-89
2022/12/21 12:03:31;;;;;;;;;;;;;;;;;;6010606;23;20001;-80
2022/12/21 12:06:03;;;;;;;;;;;;;;;;;;6012442;23;19955;-80
2022/12/21 12:08:28;;;;;;;;;;;;;;;;;;6012400;23;19914;-85
2022/12/21 12:11:04;;;;;;;;;;;;;;;;;;6012002;23;19920;-85
2022/12/21 12:13:44;;;;;;;;;;;;;;;;;;6010565;23;20394;-85
2022/12/21 12:16:28;;;;;;;;;;;;;;;;;;6012767;23;19945;-85
2022/12/21 12:19:02;;;;;;;;;;;;;;;;;;6012363;23;19921;-85
2022/12/21 12:21:43;;;;;;;;;;;;;;;;;;6013830;23;19958;-83
2022/12/21 12:24:26;;;;;;;;;;;;;;;;;;6012199;23;19914;-83
2022/12/21 12:26:58;;;;;;;;;;;;;;;;;;6013613;23;19915;-83
2022/12/21 12:29:32;;;;;;;;;;;;;;;;;;6013649;23;19942;-84
2022/12/21 12:32:17;;;;;;;;;;;;;;;;;;6013454;23;19914;-84
2022/12/21 12:35:04;;;;;;;;;;;;;;;;;;6013157;23;20291;-79
2022/12/21 12:37:49;;;;;;;;;;;;;;;;;;6013539;23;20239;-78
2022/12/21 12:40:40;;;;;;;;;;;;;;;;;;6013678;23;19922;-78
2022/12/21 12:43:30;;;;;;;;;;;;;;;;;;6011827;23;19915;-79
2022/12/21 12:46:14;;;;;;;;;;;;;;;;;;6013863;23;19993;-80
2022/12/21 12:48:54;;;;;;;;;;;;;;;;;;6013484;23;19922;-82
2022/12/21 17:27:03;;;;;;;;;;;;;;;;;;6064742;23;19932;-89
2022/12/21 17:29:30;;;;;;;;;;;;;;;;;;6045001;23;20351;-87
2022/12/21 17:31:56;;;;;;;;;;;;;;;;;;6071025;23;19937;-90
2022/12/21 17:34:22;;;;;;;;;;;;;;;;;;6070411;23;19980;-85
2022/12/21 17:36:48;;;;;;;;;;;;;;;;;;6069995;23;19961;-82
2022/12/21 17:39:14;;;;;;;;;;;;;;;;;;6069888;23;19913;-82
2022/12/21 17:41:40;;;;;;;;;;;;;;;;;;6070237;23;19921;-84
2022/12/21 17:44:06;;;;;;;;;;;;;;;;;;6070715;23;19922;-89
2022/12/21 17:46:31;;;;;;;;;;;;;;;;;;6070426;23;19917;-88
2022/12/21 17:48:57;;;;;;;;;;;;;;;;;;6070453;23;19991;-90
2022/12/21 17:51:22;;;;;;;;;;;;;;;;;;6070432;23;19914;-88
2022/12/21 17:53:48;;;;;;;;;;;;;;;;;;6072332;23;19996;-90
2022/12/21 17:56:15;;;;;;;;;;;;;;;;;;6072185;23;19988;-90
2022/12/21 17:58:40;;;;;;;;;;;;;;;;;;6072757;23;20241;-89
2022/12/21 18:01:08;;;;;;;;;;;;;;;;;;6072052;23;19914;-90
2022/12/21 18:06:29;;;;;;;;;;;;;;;;;;6066760;23;20337;-87
2022/12/21 18:08:55;;;;;;;;;;;;;;;;;;6020880;23;19929;-89
2022/12/21 18:11:22;;;;;;;;;;;;;;;;;;6046397;23;19992;-89
2022/12/21 18:13:47;;;;;;;;;;;;;;;;;;6072122;23;19914;-90
2022/12/21 18:16:16;;;;;;;;;;;;;;;;;;6069901;23;19910;-91
2022/12/21 18:18:41;;;;;;;;;;;;;;;;;;6070003;23;19937;-89
2022/12/21 18:21:06;;;;;;;;;;;;;;;;;;6069478;23;19921;-83
2022/12/21 18:23:33;;;;;;;;;;;;;;;;;;6069247;23;20289;-84
2022/12/21 18:25:59;;;;;;;;;;;;;;;;;;6069436;23;19969;-83
2022/12/21 18:28:26;;;;;;;;;;;;;;;;;;6069454;23;19914;-85
2022/12/21 18:30:53;;;;;;;;;;;;;;;;;;6069573;23;20384;-85
2022/12/21 18:33:19;;;;;;;;;;;;;;;;;;6069381;23;20325;-81
2022/12/21 18:35:44;;;;;;;;;;;;;;;;;;6069663;23;20215;-83
2022/12/21 18:38:12;;;;;;;;;;;;;;;;;;6070185;23;19913;-79
2022/12/21 18:40:38;;;;;;;;;;;;;;;;;;6069385;23;20253;-84
2022/12/21 18:43:11;;;;;;;;;;;;;;;;;;6069508;23;19914;-78
2022/12/21 18:45:37;;;;;;;;;;;;;;;;;;6069439;23;19967;-83
2022/12/21 18:48:02;;;;;;;;;;;;;;;;;;6069342;23;19914;-77
2022/12/21 18:50:28;;;;;;;;;;;;;;;;;;6069915;23;19996;-85
2022/12/21 18:52:53;;;;;;;;;;;;;;;;;;6070775;23;19913;-85
2022/12/21 18:55:19;;;;;;;;;;;;;;;;;;6070557;23;19952;-88
2022/12/21 18:57:45;;;;;;;;;;;;;;;;;;6070080;23;19914;-88
2022/12/21 19:00:15;;;;;;;;;;;;;;;;;;6073564;23;19918;-84
2022/12/21 19:02:40;;;;;;;;;;;;;;;;;;6071567;23;19917;-85
2022/12/21 19:05:08;;;;;;;;;;;;;;;;;;6070793;23;20320;-87
2022/12/21 19:07:35;;;;;;;;;;;;;;;;;;6070309;23;20227;-83
2022/12/21 19:10:01;;;;;;;;;;;;;;;;;;6070479;23;19914;-84
2022/12/21 19:12:26;;;;;;;;;;;;;;;;;;6071070;23;19921;-84
2022/12/21 19:14:52;;;;;;;;;;;;;;;;;;6072126;23;20027;-83
2022/12/21 19:17:19;;;;;;;;;;;;;;;;;;6069543;23;19961;-86
2022/12/21 19:19:44;;;;;;;;;;;;;;;;;;6068986;23;19968;-87
2022/12/21 19:22:17;;;;;;;;;;;;;;;;;;6069555;23;19917;-85
2022/12/21 19:24:42;;;;;;;;;;;;;;;;;;6044662;23;19913;-87
2022/12/21 19:27:11;;;;;;;;;;;;;;;;;;6072427;23;20345;-82
2022/12/21 19:29:36;;;;;;;;;;;;;;;;;;6046927;23;19913;-86
2022/12/21 19:32:01;;;;;;;;;;;;;;;;;;6072526;23;19989;-85
2022/12/21 19:34:27;;;;;;;;;;;;;;;;;;6073074;23;20357;-85
2022/12/21 19:36:53;;;;;;;;;;;;;;;;;;6072114;23;19913;-85
2022/12/21 19:39:25;;;;;;;;;;;;;;;;;;6072093;23;19921;-85
2022/12/21 19:41:53;;;;;;;;;;;;;;;;;;6048967;23;20012;-85
2022/12/21 19:44:20;;;;;;;;;;;;;;;;;;6051009;23;19917;-86
2022/12/21 19:46:46;;;;;;;;;;;;;;;;;;6072598;23;19969;-86
2022/12/21 19:49:21;;;;;;;;;;;;;;;;;;6070676;23;19914;-86
2022/12/21 19:51:46;;;;;;;;;;;;;;;;;;6072263;23;19920;-85
2022/12/21 19:54:13;;;;;;;;;;;;;;;;;;6072283;23;19913;-85
2022/12/21 19:56:39;;;;;;;;;;;;;;;;;;6072351;23;19937;-85
2022/12/21 19:59:05;;;;;;;;;;;;;;;;;;6072521;23;19992;-85
2022/12/21 20:01:32;;;;;;;;;;;;;;;;;;6073098;23;19922;-87
2022/12/21 20:03:58;;;;;;;;;;;;;;;;;;6072347;23;20004;-86
2022/12/21 20:06:24;;;;;;;;;;;;;;;;;;6072254;23;19953;-87
2022/12/21 20:08:49;;;;;;;;;;;;;;;;;;6072610;23;20005;-85
2022/12/21 20:11:17;;;;;;;;;;;;;;;;;;6072298;23;19921;-85
2022/12/21 20:13:45;;;;;;;;;;;;;;;;;;6072136;23;19913;-92
2022/12/21 20:16:11;;;;;;;;;;;;;;;;;;6072290;23;19921;-84
2022/12/21 20:18:36;;;;;;;;;;;;;;;;;;6073911;23;20313;-84
2022/12/21 20:21:25;;;;;;;;;;;;;;;;;;6074522;23;19914;-80
2022/12/21 20:23:51;;;;;;;;;;;;;;;;;;6024138;23;19937;-83
2022/12/21 20:26:18;;;;;;;;;;;;;;;;;;6071957;23;19917;-85
2022/12/21 20:28:43;;;;;;;;;;;;;;;;;;6071944;23;19988;-82
2022/12/21 20:31:09;;;;;;;;;;;;;;;;;;6072129;23;19955;-84
2022/12/21 20:33:34;;;;;;;;;;;;;;;;;;6072001;23;19996;-84
2022/12/21 20:36:00;;;;;;;;;;;;;;;;;;6071645;23;19921;-85
2022/12/21 20:38:26;;;;;;;;;;;;;;;;;;6070702;23;20223;-88
2022/12/21 20:40:53;;;;;;;;;;;;;;;;;;6070778;23;19917;-90
2022/12/21 20:46:04;;;;;;;;;;;;;;;;;;6070451;23;19970;-81
2022/12/21 20:48:29;;;;;;;;;;;;;;;;;;6070653;23;19965;-89
2022/12/21 20:50:55;;;;;;;;;;;;;;;;;;6068858;23;19914;-88
2022/12/21 20:53:21;;;;;;;;;;;;;;;;;;6070178;23;19914;-88
2022/12/21 20:58:30;;;;;;;;;;;;;;;;;;6070344;23;20329;-88
2022/12/21 21:00:56;;;;;;;;;;;;;;;;;;6070432;23;19914;-88
2022/12/21 21:03:26;;;;;;;;;;;;;;;;;;6072287;23;20241;-90
2022/12/21 21:05:52;;;;;;;;;;;;;;;;;;6045885;23;19917;-89
2022/12/21 21:08:17;;;;;;;;;;;;;;;;;;6070356;23;19995;-88
2022/12/21 21:10:43;;;;;;;;;;;;;;;;;;6044703;23;20437;-88
2022/12/21 21:13:08;;;;;;;;;;;;;;;;;;6070150;23;20349;-88
2022/12/21 21:15:34;;;;;;;;;;;;;;;;;;6070259;23;19914;-89
2022/12/21 21:18:01;;;;;;;;;;;;;;;;;;6070184;23;19981;-88
2022/12/21 21:23:00;;;;;;;;;;;;;;;;;;6070195;23;19913;-89
2022/12/21 21:23:14;;;;;;;;;;;;;;;;;;6069914;23;19914;-87
2022/12/21 21:25:43;;;;;;;;;;;;;;;;;;6070327;23;19989;-86
2022/12/21 21:28:22;;;;;;;;;;;;;;;;;;6069735;23;20049;-87
2022/12/21 21:30:49;;;;;;;;;;;;;;;;;;6070353;23;19943;-87
2022/12/21 21:33:14;;;;;;;;;;;;;;;;;;6071189;23;19925;-85
2022/12/21 21:35:44;;;;;;;;;;;;;;;;;;6071599;23;19984;-87
2022/12/21 21:41:37;;;;;;;;;;;;;;;;;;6071050;23;19920;-87
2022/12/21 21:44:21;;;;;;;;;;;;;;;;;;6070404;23;19914;-88
2022/12/21 21:46:46;;;;;;;;;;;;;;;;;;6044945;23;19920;-86
2022/12/21 21:49:19;;;;;;;;;;;;;;;;;;6070386;23;20300;-87
2022/12/21 21:51:45;;;;;;;;;;;;;;;;;;6045229;23;19993;-86
2022/12/21 21:54:10;;;;;;;;;;;;;;;;;;6070985;23;19970;-87
2022/12/21 21:56:38;;;;;;;;;;;;;;;;;;6046107;23;19913;-87
2022/12/21 21:59:03;;;;;;;;;;;;;;;;;;6045589;23;19914;-86
2022/12/21 22:01:32;;;;;;;;;;;;;;;;;;6070837;23;19945;-87
2022/12/21 22:03:57;;;;;;;;;;;;;;;;;;6070233;23;19913;-86
2022/12/21 22:06:23;;;;;;;;;;;;;;;;;;6069712;23;19952;-90
2022/12/21 22:08:49;;;;;;;;;;;;;;;;;;6045302;23;19920;-85
2022/12/21 22:11:19;;;;;;;;;;;;;;;;;;6045409;23;19918;-90
2022/12/21 22:13:45;;;;;;;;;;;;;;;;;;6070792;23;19949;-89
2022/12/21 22:16:12;;;;;;;;;;;;;;;;;;6045358;23;19961;-85
2022/12/21 22:18:38;;;;;;;;;;;;;;;;;;6070611;23;19920;-89
2022/12/21 22:32:42;;;;;;;;;;;;;;;;;;6052063;23;19969;-92
2022/12/21 22:43:23;;;;;;;;;;;;;;;;;;6071110;23;19920;-89
2022/12/21 22:45:51;;;;;;;;;;;;;;;;;;6071577;23;19914;-87
2022/12/21 22:48:17;;;;;;;;;;;;;;;;;;6045283;23;19913;-85
2022/12/21 22:50:43;;;;;;;;;;;;;;;;;;6070266;23;19936;-86
2022/12/21 22:53:16;;;;;;;;;;;;;;;;;;6071125;23;19971;-90
2022/12/21 22:55:42;;;;;;;;;;;;;;;;;;6071624;23;19924;-90
